sensor_id;sensor_type;location;lat;lon;timestamp;P1;durP1;ratioP1;P2;durP2;ratioP2
8654;SDS011;13500;52.514;13.462;2023-12-07T00:02:03;27.43;;;19.57;;
8654;SDS011;13500;52.514;13.462;2023-12-07T00:04:39;29.43;;;19.53;;
8654;SDS011;13500;52.514;13.462;2023-12-07T00:07:08;30.27;;;20.10;;
8654;SDS011;13500;52.514;13.462;2023-12-07T00:09:36;27.10;;;20.00;;
8654;SDS011;13500;52.514;13.462;2023-12-07T00:12:09;27.23;;;19.73;;
8654;SDS011;13500;52.514;13.462;2023-12-07T00:14:40;29.37;;;20.80;;
8654;SDS011;13500;52.514;13.462;2023-12-07T00:17:16;29.97;;;20.90;;
8654;SDS011;13500;52.514;13.462;2023-12-07T00:19:46;28.73;;;20.80;;
8654;SDS011;13500;52.514;13.462;2023-12-07T00:22:15;26.93;;;19.80;;
8654;SDS011;13500;52.514;13.462;2023-12-07T00:24:43;28.57;;;19.87;;
8654;SDS011;13500;52.514;13.462;2023-12-07T00:27:13;28.30;;;20.33;;
8654;SDS011;13500;52.514;13.462;2023-12-07T00:29:44;27.67;;;19.37;;
8654;SDS011;13500;52.514;13.462;2023-12-07T00:32:12;27.93;;;20.23;;
8654;SDS011;13500;52.514;13.462;2023-12-07T00:34:42;27.17;;;19.87;;
8654;SDS011;13500;52.514;13.462;2023-12-07T00:37:10;28.37;;;20.43;;
8654;SDS011;13500;52.514;13.462;2023-12-07T00:39:40;28.57;;;19.87;;
8654;SDS011;13500;52.514;13.462;2023-12-07T00:42:08;27.27;;;19.60;;
8654;SDS011;13500;52.514;13.462;2023-12-07T00:44:40;26.37;;;18.93;;
8654;SDS011;13500;52.514;13.462;2023-12-07T00:47:09;27.67;;;19.73;;
8654;SDS011;13500;52.514;13.462;2023-12-07T00:49:38;28.50;;;20.03;;
8654;SDS011;13500;52.514;13.462;2023-12-07T00:52:10;34.90;;;23.20;;
8654;SDS011;13500;52.514;13.462;2023-12-07T00:54:39;27.87;;;19.67;;
8654;SDS011;13500;52.514;13.462;2023-12-07T00:57:08;29.87;;;20.33;;
8654;SDS011;13500;52.514;13.462;2023-12-07T00:59:36;27.57;;;20.33;;
8654;SDS011;13500;52.514;13.462;2023-12-07T01:02:06;28.60;;;20.17;;
8654;SDS011;13500;52.514;13.462;2023-12-07T01:04:35;28.50;;;19.97;;
8654;SDS011;13500;52.514;13.462;2023-12-07T01:07:04;30.50;;;20.27;;
8654;SDS011;13500;52.514;13.462;2023-12-07T01:09:33;28.43;;;20.27;;
8654;SDS011;13500;52.514;13.462;2023-12-07T01:12:02;29.43;;;20.57;;
8654;SDS011;13500;52.514;13.462;2023-12-07T01:14:31;27.50;;;19.83;;
8654;SDS011;13500;52.514;13.462;2023-12-07T01:16:59;29.73;;;19.83;;
8654;SDS011;13500;52.514;13.462;2023-12-07T01:19:31;25.80;;;18.97;;
8654;SDS011;13500;52.514;13.462;2023-12-07T01:22:02;28.10;;;20.40;;
8654;SDS011;13500;52.514;13.462;2023-12-07T01:24:30;27.80;;;19.90;;
8654;SDS011;13500;52.514;13.462;2023-12-07T01:26:59;25.50;;;18.53;;
8654;SDS011;13500;52.514;13.462;2023-12-07T01:29:28;28.53;;;20.03;;
8654;SDS011;13500;52.514;13.462;2023-12-07T01:31:56;26.00;;;19.40;;
8654;SDS011;13500;52.514;13.462;2023-12-07T01:34:26;27.07;;;19.90;;
8654;SDS011;13500;52.514;13.462;2023-12-07T01:36:56;27.83;;;20.10;;
8654;SDS011;13500;52.514;13.462;2023-12-07T01:39:26;26.40;;;19.87;;
8654;SDS011;13500;52.514;13.462;2023-12-07T01:41:56;25.87;;;19.93;;
8654;SDS011;13500;52.514;13.462;2023-12-07T01:44:25;25.47;;;19.17;;
8654;SDS011;13500;52.514;13.462;2023-12-07T01:46:56;27.93;;;20.00;;
8654;SDS011;13500;52.514;13.462;2023-12-07T01:49:24;27.43;;;18.70;;
8654;SDS011;13500;52.514;13.462;2023-12-07T01:51:55;26.43;;;19.53;;
8654;SDS011;13500;52.514;13.462;2023-12-07T01:54:24;26.93;;;19.77;;
8654;SDS011;13500;52.514;13.462;2023-12-07T01:56:53;27.47;;;19.97;;
8654;SDS011;13500;52.514;13.462;2023-12-07T01:59:25;28.33;;;20.00;;
8654;SDS011;13500;52.514;13.462;2023-12-07T02:01:55;27.50;;;19.27;;
8654;SDS011;13500;52.514;13.462;2023-12-07T02:04:24;29.63;;;20.43;;
8654;SDS011;13500;52.514;13.462;2023-12-07T02:06:59;29.43;;;20.23;;
8654;SDS011;13500;52.514;13.462;2023-12-07T02:09:29;30.70;;;20.73;;
8654;SDS011;13500;52.514;13.462;2023-12-07T02:11:59;28.60;;;19.97;;
8654;SDS011;13500;52.514;13.462;2023-12-07T02:14:30;27.20;;;20.20;;
8654;SDS011;13500;52.514;13.462;2023-12-07T02:17:01;27.77;;;19.80;;
8654;SDS011;13500;52.514;13.462;2023-12-07T02:19:46;28.73;;;20.17;;
8654;SDS011;13500;52.514;13.462;2023-12-07T02:22:24;28.37;;;19.73;;
8654;SDS011;13500;52.514;13.462;2023-12-07T02:25:01;29.77;;;19.87;;
8654;SDS011;13500;52.514;13.462;2023-12-07T02:27:38;27.43;;;19.50;;
8654;SDS011;13500;52.514;13.462;2023-12-07T02:30:08;28.27;;;20.60;;
8654;SDS011;13500;52.514;13.462;2023-12-07T02:32:43;29.03;;;20.47;;
8654;SDS011;13500;52.514;13.462;2023-12-07T02:35:13;28.20;;;20.27;;
8654;SDS011;13500;52.514;13.462;2023-12-07T02:37:43;28.10;;;19.93;;
8654;SDS011;13500;52.514;13.462;2023-12-07T02:40:16;27.47;;;20.10;;
8654;SDS011;13500;52.514;13.462;2023-12-07T02:42:47;28.63;;;20.13;;
8654;SDS011;13500;52.514;13.462;2023-12-07T02:45:17;28.53;;;20.30;;
8654;SDS011;13500;52.514;13.462;2023-12-07T02:47:45;27.50;;;19.33;;
8654;SDS011;13500;52.514;13.462;2023-12-07T02:50:14;25.80;;;18.67;;
8654;SDS011;13500;52.514;13.462;2023-12-07T02:52:43;27.00;;;19.13;;
8654;SDS011;13500;52.514;13.462;2023-12-07T02:55:12;27.53;;;19.43;;
8654;SDS011;13500;52.514;13.462;2023-12-07T02:57:40;28.63;;;20.87;;
8654;SDS011;13500;52.514;13.462;2023-12-07T03:00:13;27.90;;;20.00;;
8654;SDS011;13500;52.514;13.462;2023-12-07T03:02:42;26.50;;;19.20;;
8654;SDS011;13500;52.514;13.462;2023-12-07T03:05:11;29.43;;;20.90;;
8654;SDS011;13500;52.514;13.462;2023-12-07T03:07:42;28.93;;;21.03;;
8654;SDS011;13500;52.514;13.462;2023-12-07T03:10:11;29.53;;;20.83;;
8654;SDS011;13500;52.514;13.462;2023-12-07T03:12:39;30.27;;;20.57;;
8654;SDS011;13500;52.514;13.462;2023-12-07T03:15:08;27.50;;;20.07;;
8654;SDS011;13500;52.514;13.462;2023-12-07T03:17:41;25.83;;;19.23;;
8654;SDS011;13500;52.514;13.462;2023-12-07T03:20:11;27.93;;;20.13;;
8654;SDS011;13500;52.514;13.462;2023-12-07T03:22:42;27.17;;;19.93;;
8654;SDS011;13500;52.514;13.462;2023-12-07T03:25:12;27.37;;;19.53;;
8654;SDS011;13500;52.514;13.462;2023-12-07T03:27:42;27.47;;;19.33;;
8654;SDS011;13500;52.514;13.462;2023-12-07T03:30:13;25.23;;;18.77;;
8654;SDS011;13500;52.514;13.462;2023-12-07T03:32:44;22.67;;;17.53;;
8654;SDS011;13500;52.514;13.462;2023-12-07T03:35:13;25.10;;;18.70;;
8654;SDS011;13500;52.514;13.462;2023-12-07T03:37:42;23.60;;;18.20;;
8654;SDS011;13500;52.514;13.462;2023-12-07T03:40:11;22.80;;;18.10;;
8654;SDS011;13500;52.514;13.462;2023-12-07T03:42:40;22.37;;;17.37;;
8654;SDS011;13500;52.514;13.462;2023-12-07T03:45:22;22.37;;;18.10;;
8654;SDS011;13500;52.514;13.462;2023-12-07T03:47:51;22.80;;;17.47;;
8654;SDS011;13500;52.514;13.462;2023-12-07T03:50:21;21.60;;;17.07;;
8654;SDS011;13500;52.514;13.462;2023-12-07T03:52:50;24.50;;;17.87;;
8654;SDS011;13500;52.514;13.462;2023-12-07T03:55:19;21.73;;;17.07;;
8654;SDS011;13500;52.514;13.462;2023-12-07T03:57:47;25.53;;;18.07;;
8654;SDS011;13500;52.514;13.462;2023-12-07T04:00:16;20.80;;;17.37;;
8654;SDS011;13500;52.514;13.462;2023-12-07T04:02:47;24.30;;;18.27;;
8654;SDS011;13500;52.514;13.462;2023-12-07T04:05:17;22.07;;;17.67;;
8654;SDS011;13500;52.514;13.462;2023-12-07T04:07:46;22.60;;;18.13;;
8654;SDS011;13500;52.514;13.462;2023-12-07T04:10:18;23.07;;;18.13;;
8654;SDS011;13500;52.514;13.462;2023-12-07T04:12:50;23.20;;;17.80;;
8654;SDS011;13500;52.514;13.462;2023-12-07T04:15:21;24.57;;;17.53;;
8654;SDS011;13500;52.514;13.462;2023-12-07T04:17:50;23.70;;;18.00;;
8654;SDS011;13500;52.514;13.462;2023-12-07T04:20:21;22.10;;;17.67;;
8654;SDS011;13500;52.514;13.462;2023-12-07T04:22:49;25.23;;;18.47;;
8654;SDS011;13500;52.514;13.462;2023-12-07T04:25:18;24.27;;;18.23;;
8654;SDS011;13500;52.514;13.462;2023-12-07T04:27:47;24.43;;;18.77;;
8654;SDS011;13500;52.514;13.462;2023-12-07T04:30:15;23.30;;;18.03;;
8654;SDS011;13500;52.514;13.462;2023-12-07T04:32:44;25.83;;;18.70;;
8654;SDS011;13500;52.514;13.462;2023-12-07T04:35:14;23.53;;;18.33;;
8654;SDS011;13500;52.514;13.462;2023-12-07T04:37:43;24.10;;;17.97;;
8654;SDS011;13500;52.514;13.462;2023-12-07T04:40:13;24.93;;;18.87;;
8654;SDS011;13500;52.514;13.462;2023-12-07T04:42:42;24.33;;;17.87;;
8654;SDS011;13500;52.514;13.462;2023-12-07T04:45:13;24.70;;;19.23;;
8654;SDS011;13500;52.514;13.462;2023-12-07T04:47:43;23.77;;;17.80;;
8654;SDS011;13500;52.514;13.462;2023-12-07T04:50:11;27.20;;;19.20;;
8654;SDS011;13500;52.514;13.462;2023-12-07T04:52:40;25.30;;;18.23;;
8654;SDS011;13500;52.514;13.462;2023-12-07T04:55:10;25.37;;;19.43;;
8654;SDS011;13500;52.514;13.462;2023-12-07T04:57:39;27.90;;;20.10;;
8654;SDS011;13500;52.514;13.462;2023-12-07T05:00:12;28.93;;;20.53;;
8654;SDS011;13500;52.514;13.462;2023-12-07T05:02:41;28.33;;;19.87;;
8654;SDS011;13500;52.514;13.462;2023-12-07T05:05:09;26.20;;;18.40;;
8654;SDS011;13500;52.514;13.462;2023-12-07T05:07:38;26.70;;;18.60;;
8654;SDS011;13500;52.514;13.462;2023-12-07T05:10:11;25.37;;;18.70;;
8654;SDS011;13500;52.514;13.462;2023-12-07T05:12:44;27.23;;;18.57;;
8654;SDS011;13500;52.514;13.462;2023-12-07T05:15:13;24.30;;;17.43;;
8654;SDS011;13500;52.514;13.462;2023-12-07T05:17:41;27.40;;;18.57;;
8654;SDS011;13500;52.514;13.462;2023-12-07T05:20:12;23.73;;;16.93;;
8654;SDS011;13500;52.514;13.462;2023-12-07T05:22:44;23.30;;;16.93;;
8654;SDS011;13500;52.514;13.462;2023-12-07T05:25:14;24.80;;;17.83;;
8654;SDS011;13500;52.514;13.462;2023-12-07T05:27:46;26.27;;;17.33;;
8654;SDS011;13500;52.514;13.462;2023-12-07T05:30:14;24.20;;;17.30;;
8654;SDS011;13500;52.514;13.462;2023-12-07T05:32:42;25.50;;;17.83;;
8654;SDS011;13500;52.514;13.462;2023-12-07T05:35:14;21.90;;;16.03;;
8654;SDS011;13500;52.514;13.462;2023-12-07T05:37:42;23.73;;;16.90;;
8654;SDS011;13500;52.514;13.462;2023-12-07T05:40:15;23.73;;;17.27;;
8654;SDS011;13500;52.514;13.462;2023-12-07T05:42:47;23.73;;;16.40;;
8654;SDS011;13500;52.514;13.462;2023-12-07T05:45:17;24.43;;;17.17;;
8654;SDS011;13500;52.514;13.462;2023-12-07T05:47:46;25.53;;;17.87;;
8654;SDS011;13500;52.514;13.462;2023-12-07T05:50:15;24.77;;;17.80;;
8654;SDS011;13500;52.514;13.462;2023-12-07T05:52:49;24.80;;;17.17;;
8654;SDS011;13500;52.514;13.462;2023-12-07T05:55:18;23.07;;;16.07;;
8654;SDS011;13500;52.514;13.462;2023-12-07T05:57:48;24.23;;;17.33;;
8654;SDS011;13500;52.514;13.462;2023-12-07T06:00:19;24.10;;;16.67;;
8654;SDS011;13500;52.514;13.462;2023-12-07T06:02:47;22.70;;;16.43;;
8654;SDS011;13500;52.514;13.462;2023-12-07T06:05:16;24.50;;;17.13;;
8654;SDS011;13500;52.514;13.462;2023-12-07T06:07:46;25.43;;;17.83;;
8654;SDS011;13500;52.514;13.462;2023-12-07T06:10:14;23.40;;;16.67;;
8654;SDS011;13500;52.514;13.462;2023-12-07T06:12:47;25.93;;;18.80;;
8654;SDS011;13500;52.514;13.462;2023-12-07T06:15:17;27.27;;;18.23;;
8654;SDS011;13500;52.514;13.462;2023-12-07T06:17:46;25.03;;;17.33;;
8654;SDS011;13500;52.514;13.462;2023-12-07T06:20:16;26.93;;;18.50;;
8654;SDS011;13500;52.514;13.462;2023-12-07T06:22:47;27.10;;;18.03;;
8654;SDS011;13500;52.514;13.462;2023-12-07T06:25:17;24.93;;;18.07;;
8654;SDS011;13500;52.514;13.462;2023-12-07T06:27:49;28.37;;;18.80;;
8654;SDS011;13500;52.514;13.462;2023-12-07T06:30:20;26.47;;;18.27;;
8654;SDS011;13500;52.514;13.462;2023-12-07T06:32:48;25.43;;;17.63;;
8654;SDS011;13500;52.514;13.462;2023-12-07T06:35:17;24.93;;;17.73;;
8654;SDS011;13500;52.514;13.462;2023-12-07T06:37:49;26.40;;;17.13;;
8654;SDS011;13500;52.514;13.462;2023-12-07T06:40:18;23.73;;;17.33;;
8654;SDS011;13500;52.514;13.462;2023-12-07T06:42:49;26.70;;;17.50;;
8654;SDS011;13500;52.514;13.462;2023-12-07T06:45:21;27.03;;;18.17;;
8654;SDS011;13500;52.514;13.462;2023-12-07T06:47:52;24.17;;;16.47;;
8654;SDS011;13500;52.514;13.462;2023-12-07T06:50:24;23.90;;;16.63;;
8654;SDS011;13500;52.514;13.462;2023-12-07T06:52:53;25.00;;;17.23;;
8654;SDS011;13500;52.514;13.462;2023-12-07T06:55:23;24.60;;;16.10;;
8654;SDS011;13500;52.514;13.462;2023-12-07T06:57:54;24.00;;;16.87;;
8654;SDS011;13500;52.514;13.462;2023-12-07T07:00:28;26.57;;;16.67;;
8654;SDS011;13500;52.514;13.462;2023-12-07T07:02:56;24.50;;;16.53;;
8654;SDS011;13500;52.514;13.462;2023-12-07T07:05:25;24.53;;;16.70;;
8654;SDS011;13500;52.514;13.462;2023-12-07T07:07:55;27.43;;;17.10;;
8654;SDS011;13500;52.514;13.462;2023-12-07T07:10:24;28.37;;;17.60;;
8654;SDS011;13500;52.514;13.462;2023-12-07T07:12:54;26.20;;;16.83;;
8654;SDS011;13500;52.514;13.462;2023-12-07T07:15:29;26.13;;;17.20;;
8654;SDS011;13500;52.514;13.462;2023-12-07T07:18:02;28.00;;;18.67;;
8654;SDS011;13500;52.514;13.462;2023-12-07T07:20:31;25.30;;;17.07;;
8654;SDS011;13500;52.514;13.462;2023-12-07T07:23:01;27.60;;;17.27;;
8654;SDS011;13500;52.514;13.462;2023-12-07T07:25:29;25.17;;;17.87;;
8654;SDS011;13500;52.514;13.462;2023-12-07T07:28:00;26.03;;;16.90;;
8654;SDS011;13500;52.514;13.462;2023-12-07T07:30:30;26.43;;;17.47;;
8654;SDS011;13500;52.514;13.462;2023-12-07T07:33:01;27.03;;;17.83;;
8654;SDS011;13500;52.514;13.462;2023-12-07T07:35:29;26.50;;;16.47;;
8654;SDS011;13500;52.514;13.462;2023-12-07T07:37:59;27.77;;;16.97;;
8654;SDS011;13500;52.514;13.462;2023-12-07T07:40:27;28.73;;;16.80;;
8654;SDS011;13500;52.514;13.462;2023-12-07T07:42:59;27.20;;;17.20;;
8654;SDS011;13500;52.514;13.462;2023-12-07T07:45:29;26.80;;;17.47;;
8654;SDS011;13500;52.514;13.462;2023-12-07T07:48:01;25.07;;;17.23;;
8654;SDS011;13500;52.514;13.462;2023-12-07T07:50:29;28.20;;;17.87;;
8654;SDS011;13500;52.514;13.462;2023-12-07T07:53:02;26.93;;;17.13;;
8654;SDS011;13500;52.514;13.462;2023-12-07T07:55:31;28.27;;;17.03;;
8654;SDS011;13500;52.514;13.462;2023-12-07T07:58:04;28.37;;;18.43;;
8654;SDS011;13500;52.514;13.462;2023-12-07T08:00:35;28.30;;;17.80;;
8654;SDS011;13500;52.514;13.462;2023-12-07T08:03:06;29.07;;;18.13;;
8654;SDS011;13500;52.514;13.462;2023-12-07T08:05:40;30.33;;;19.13;;
8654;SDS011;13500;52.514;13.462;2023-12-07T08:08:11;29.23;;;19.07;;
8654;SDS011;13500;52.514;13.462;2023-12-07T08:10:40;31.43;;;20.27;;
8654;SDS011;13500;52.514;13.462;2023-12-07T08:13:23;34.30;;;18.90;;
8654;SDS011;13500;52.514;13.462;2023-12-07T08:15:51;32.67;;;19.60;;
8654;SDS011;13500;52.514;13.462;2023-12-07T08:18:24;29.57;;;19.03;;
8654;SDS011;13500;52.514;13.462;2023-12-07T08:20:55;28.77;;;18.27;;
8654;SDS011;13500;52.514;13.462;2023-12-07T08:23:26;30.43;;;18.23;;
8654;SDS011;13500;52.514;13.462;2023-12-07T08:25:55;27.77;;;18.73;;
8654;SDS011;13500;52.514;13.462;2023-12-07T08:28:28;29.50;;;18.37;;
8654;SDS011;13500;52.514;13.462;2023-12-07T08:30:59;29.50;;;18.83;;
8654;SDS011;13500;52.514;13.462;2023-12-07T08:33:27;42.10;;;22.20;;
8654;SDS011;13500;52.514;13.462;2023-12-07T08:36:00;28.27;;;18.80;;
8654;SDS011;13500;52.514;13.462;2023-12-07T08:38:31;31.23;;;19.07;;
8654;SDS011;13500;52.514;13.462;2023-12-07T08:41:03;32.27;;;19.87;;
8654;SDS011;13500;52.514;13.462;2023-12-07T08:43:35;28.63;;;17.47;;
8654;SDS011;13500;52.514;13.462;2023-12-07T08:46:06;27.70;;;18.27;;
8654;SDS011;13500;52.514;13.462;2023-12-07T08:48:35;28.73;;;19.73;;
8654;SDS011;13500;52.514;13.462;2023-12-07T08:51:08;26.93;;;17.97;;
8654;SDS011;13500;52.514;13.462;2023-12-07T08:53:38;27.80;;;18.03;;
8654;SDS011;13500;52.514;13.462;2023-12-07T08:56:09;30.07;;;19.20;;
8654;SDS011;13500;52.514;13.462;2023-12-07T08:58:40;31.33;;;19.43;;
8654;SDS011;13500;52.514;13.462;2023-12-07T09:01:09;29.47;;;17.97;;
8654;SDS011;13500;52.514;13.462;2023-12-07T09:03:55;28.93;;;17.30;;
8654;SDS011;13500;52.514;13.462;2023-12-07T09:06:35;28.77;;;17.70;;
8654;SDS011;13500;52.514;13.462;2023-12-07T09:09:06;26.23;;;17.37;;
8654;SDS011;13500;52.514;13.462;2023-12-07T09:11:36;26.53;;;17.97;;
8654;SDS011;13500;52.514;13.462;2023-12-07T09:14:07;26.40;;;17.03;;
8654;SDS011;13500;52.514;13.462;2023-12-07T09:16:44;25.87;;;18.03;;
8654;SDS011;13500;52.514;13.462;2023-12-07T09:19:14;24.83;;;17.00;;
8654;SDS011;13500;52.514;13.462;2023-12-07T09:21:43;27.30;;;18.53;;
8654;SDS011;13500;52.514;13.462;2023-12-07T09:24:17;23.43;;;16.50;;
8654;SDS011;13500;52.514;13.462;2023-12-07T09:26:50;27.17;;;17.70;;
8654;SDS011;13500;52.514;13.462;2023-12-07T09:29:25;23.13;;;16.03;;
8654;SDS011;13500;52.514;13.462;2023-12-07T09:31:56;22.00;;;16.07;;
8654;SDS011;13500;52.514;13.462;2023-12-07T09:34:25;24.70;;;16.90;;
8654;SDS011;13500;52.514;13.462;2023-12-07T09:37:05;25.27;;;16.60;;
8654;SDS011;13500;52.514;13.462;2023-12-07T09:39:38;29.63;;;17.87;;
8654;SDS011;13500;52.514;13.462;2023-12-07T09:42:08;22.93;;;15.77;;
8654;SDS011;13500;52.514;13.462;2023-12-07T09:44:42;24.17;;;16.13;;
8654;SDS011;13500;52.514;13.462;2023-12-07T09:47:13;26.20;;;17.07;;
8654;SDS011;13500;52.514;13.462;2023-12-07T09:49:58;23.57;;;16.33;;
8654;SDS011;13500;52.514;13.462;2023-12-07T09:52:33;24.10;;;15.93;;
8654;SDS011;13500;52.514;13.462;2023-12-07T09:55:02;19.90;;;14.67;;
8654;SDS011;13500;52.514;13.462;2023-12-07T09:57:32;22.00;;;15.30;;
8654;SDS011;13500;52.514;13.462;2023-12-07T10:00:10;22.17;;;15.50;;
8654;SDS011;13500;52.514;13.462;2023-12-07T10:02:47;22.80;;;14.87;;
8654;SDS011;13500;52.514;13.462;2023-12-07T10:05:21;21.03;;;14.40;;
8654;SDS011;13500;52.514;13.462;2023-12-07T10:07:55;20.13;;;14.17;;
8654;SDS011;13500;52.514;13.462;2023-12-07T10:10:28;21.23;;;14.40;;
8654;SDS011;13500;52.514;13.462;2023-12-07T10:12:58;24.70;;;15.47;;
8654;SDS011;13500;52.514;13.462;2023-12-07T10:15:31;19.43;;;13.47;;
8654;SDS011;13500;52.514;13.462;2023-12-07T10:18:01;20.23;;;13.37;;
8654;SDS011;13500;52.514;13.462;2023-12-07T10:20:31;19.40;;;14.10;;
8654;SDS011;13500;52.514;13.462;2023-12-07T10:23:09;20.07;;;14.43;;
8654;SDS011;13500;52.514;13.462;2023-12-07T10:25:42;23.30;;;15.40;;
8654;SDS011;13500;52.514;13.462;2023-12-07T10:28:14;21.67;;;14.97;;
8654;SDS011;13500;52.514;13.462;2023-12-07T10:30:50;21.60;;;14.50;;
8654;SDS011;13500;52.514;13.462;2023-12-07T10:33:43;20.70;;;14.67;;
8654;SDS011;13500;52.514;13.462;2023-12-07T10:36:20;22.73;;;15.10;;
8654;SDS011;13500;52.514;13.462;2023-12-07T10:38:52;22.33;;;15.43;;
8654;SDS011;13500;52.514;13.462;2023-12-07T10:41:23;24.70;;;16.03;;
8654;SDS011;13500;52.514;13.462;2023-12-07T10:43:52;25.73;;;16.10;;
8654;SDS011;13500;52.514;13.462;2023-12-07T10:46:25;23.13;;;16.10;;
8654;SDS011;13500;52.514;13.462;2023-12-07T10:48:59;24.60;;;16.27;;
8654;SDS011;13500;52.514;13.462;2023-12-07T10:51:45;26.30;;;17.07;;
8654;SDS011;13500;52.514;13.462;2023-12-07T10:54:23;25.57;;;17.00;;
8654;SDS011;13500;52.514;13.462;2023-12-07T10:56:57;24.33;;;15.33;;
8654;SDS011;13500;52.514;13.462;2023-12-07T10:59:29;26.10;;;16.90;;
8654;SDS011;13500;52.514;13.462;2023-12-07T11:02:03;24.53;;;16.13;;
8654;SDS011;13500;52.514;13.462;2023-12-07T11:04:33;24.70;;;16.07;;
8654;SDS011;13500;52.514;13.462;2023-12-07T11:07:06;26.27;;;17.40;;
8654;SDS011;13500;52.514;13.462;2023-12-07T11:09:50;24.27;;;15.90;;
8654;SDS011;13500;52.514;13.462;2023-12-07T11:12:23;26.13;;;17.50;;
8654;SDS011;13500;52.514;13.462;2023-12-07T11:14:58;27.53;;;16.70;;
8654;SDS011;13500;52.514;13.462;2023-12-07T11:17:28;24.87;;;16.63;;
8654;SDS011;13500;52.514;13.462;2023-12-07T11:19:59;24.33;;;16.70;;
8654;SDS011;13500;52.514;13.462;2023-12-07T11:22:29;33.23;;;21.07;;
8654;SDS011;13500;52.514;13.462;2023-12-07T11:24:59;23.90;;;15.90;;
8654;SDS011;13500;52.514;13.462;2023-12-07T11:27:31;27.00;;;16.80;;
8654;SDS011;13500;52.514;13.462;2023-12-07T11:30:00;25.20;;;16.90;;
8654;SDS011;13500;52.514;13.462;2023-12-07T11:32:33;23.97;;;16.57;;
8654;SDS011;13500;52.514;13.462;2023-12-07T11:35:04;25.13;;;16.80;;
8654;SDS011;13500;52.514;13.462;2023-12-07T11:40:30;28.90;;;17.37;;
8654;SDS011;13500;52.514;13.462;2023-12-07T11:43:00;25.53;;;17.53;;
8654;SDS011;13500;52.514;13.462;2023-12-07T11:45:40;27.87;;;16.83;;
8654;SDS011;13500;52.514;13.462;2023-12-07T11:48:13;25.40;;;16.90;;
8654;SDS011;13500;52.514;13.462;2023-12-07T11:50:56;22.57;;;15.43;;
8654;SDS011;13500;52.514;13.462;2023-12-07T11:53:26;23.87;;;16.13;;
8654;SDS011;13500;52.514;13.462;2023-12-07T11:55:56;22.33;;;15.40;;
8654;SDS011;13500;52.514;13.462;2023-12-07T11:58:26;23.20;;;16.27;;
8654;SDS011;13500;52.514;13.462;2023-12-07T12:00:55;22.10;;;15.83;;
8654;SDS011;13500;52.514;13.462;2023-12-07T12:03:31;23.77;;;16.40;;
8654;SDS011;13500;52.514;13.462;2023-12-07T12:06:04;23.73;;;16.27;;
8654;SDS011;13500;52.514;13.462;2023-12-07T12:08:39;24.83;;;16.90;;
8654;SDS011;13500;52.514;13.462;2023-12-07T12:11:09;33.63;;;17.97;;
8654;SDS011;13500;52.514;13.462;2023-12-07T12:13:39;26.67;;;18.33;;
8654;SDS011;13500;52.514;13.462;2023-12-07T12:16:07;27.63;;;17.00;;
8654;SDS011;13500;52.514;13.462;2023-12-07T12:18:38;28.00;;;16.10;;
8654;SDS011;13500;52.514;13.462;2023-12-07T12:21:10;30.17;;;17.37;;
8654;SDS011;13500;52.514;13.462;2023-12-07T12:23:40;24.30;;;15.97;;
8654;SDS011;13500;52.514;13.462;2023-12-07T12:26:12;25.40;;;16.33;;
8654;SDS011;13500;52.514;13.462;2023-12-07T12:28:45;27.27;;;18.03;;
8654;SDS011;13500;52.514;13.462;2023-12-07T12:31:15;25.53;;;17.47;;
8654;SDS011;13500;52.514;13.462;2023-12-07T12:33:47;26.63;;;17.80;;
8654;SDS011;13500;52.514;13.462;2023-12-07T12:36:21;23.90;;;16.70;;
8654;SDS011;13500;52.514;13.462;2023-12-07T12:38:50;26.40;;;17.47;;
8654;SDS011;13500;52.514;13.462;2023-12-07T12:41:18;26.40;;;18.13;;
8654;SDS011;13500;52.514;13.462;2023-12-07T12:43:48;27.57;;;18.17;;
8654;SDS011;13500;52.514;13.462;2023-12-07T12:46:20;28.07;;;18.83;;
8654;SDS011;13500;52.514;13.462;2023-12-07T12:48:55;28.30;;;19.27;;
8654;SDS011;13500;52.514;13.462;2023-12-07T12:51:25;31.27;;;19.67;;
8654;SDS011;13500;52.514;13.462;2023-12-07T12:53:57;29.37;;;20.17;;
8654;SDS011;13500;52.514;13.462;2023-12-07T12:56:30;30.07;;;20.57;;
8654;SDS011;13500;52.514;13.462;2023-12-07T12:59:01;32.13;;;21.63;;
8654;SDS011;13500;52.514;13.462;2023-12-07T13:01:38;31.67;;;22.23;;
8654;SDS011;13500;52.514;13.462;2023-12-07T13:04:10;29.10;;;21.40;;
8654;SDS011;13500;52.514;13.462;2023-12-07T13:06:40;32.80;;;22.13;;
8654;SDS011;13500;52.514;13.462;2023-12-07T13:09:11;30.50;;;21.80;;
8654;SDS011;13500;52.514;13.462;2023-12-07T13:11:43;34.00;;;22.67;;
8654;SDS011;13500;52.514;13.462;2023-12-07T13:14:12;31.33;;;21.27;;
8654;SDS011;13500;52.514;13.462;2023-12-07T13:16:44;35.80;;;23.63;;
8654;SDS011;13500;52.514;13.462;2023-12-07T13:19:19;33.53;;;23.00;;
8654;SDS011;13500;52.514;13.462;2023-12-07T13:21:49;35.00;;;23.27;;
8654;SDS011;13500;52.514;13.462;2023-12-07T13:24:21;37.10;;;25.20;;
8654;SDS011;13500;52.514;13.462;2023-12-07T13:26:53;34.67;;;24.30;;
8654;SDS011;13500;52.514;13.462;2023-12-07T13:29:22;34.37;;;22.50;;
8654;SDS011;13500;52.514;13.462;2023-12-07T13:32:02;33.70;;;23.20;;
8654;SDS011;13500;52.514;13.462;2023-12-07T13:34:33;37.37;;;24.93;;
8654;SDS011;13500;52.514;13.462;2023-12-07T13:37:03;36.93;;;24.20;;
8654;SDS011;13500;52.514;13.462;2023-12-07T13:39:32;41.87;;;27.30;;
8654;SDS011;13500;52.514;13.462;2023-12-07T13:42:05;35.90;;;25.53;;
8654;SDS011;13500;52.514;13.462;2023-12-07T13:44:34;33.73;;;23.97;;
8654;SDS011;13500;52.514;13.462;2023-12-07T13:47:02;37.07;;;25.27;;
8654;SDS011;13500;52.514;13.462;2023-12-07T13:49:34;37.30;;;24.07;;
8654;SDS011;13500;52.514;13.462;2023-12-07T13:52:04;39.50;;;26.10;;
8654;SDS011;13500;52.514;13.462;2023-12-07T13:54:35;39.30;;;24.77;;
8654;SDS011;13500;52.514;13.462;2023-12-07T13:57:06;78.03;;;57.90;;
8654;SDS011;13500;52.514;13.462;2023-12-07T13:59:37;41.63;;;27.53;;
8654;SDS011;13500;52.514;13.462;2023-12-07T14:02:07;43.13;;;30.57;;
8654;SDS011;13500;52.514;13.462;2023-12-07T14:04:39;43.50;;;27.77;;
8654;SDS011;13500;52.514;13.462;2023-12-07T14:07:12;43.23;;;27.23;;
8654;SDS011;13500;52.514;13.462;2023-12-07T14:09:44;43.97;;;27.43;;
8654;SDS011;13500;52.514;13.462;2023-12-07T14:12:24;46.80;;;28.23;;
8654;SDS011;13500;52.514;13.462;2023-12-07T14:14:56;46.17;;;30.77;;
8654;SDS011;13500;52.514;13.462;2023-12-07T14:17:27;54.97;;;35.47;;
8654;SDS011;13500;52.514;13.462;2023-12-07T14:20:12;44.87;;;27.67;;
8654;SDS011;13500;52.514;13.462;2023-12-07T14:23:03;43.93;;;28.73;;
8654;SDS011;13500;52.514;13.462;2023-12-07T14:25:35;47.27;;;29.40;;
8654;SDS011;13500;52.514;13.462;2023-12-07T14:28:06;42.23;;;26.53;;
8654;SDS011;13500;52.514;13.462;2023-12-07T14:30:35;44.83;;;27.63;;
8654;SDS011;13500;52.514;13.462;2023-12-07T14:33:03;50.63;;;29.63;;
8654;SDS011;13500;52.514;13.462;2023-12-07T14:35:36;48.90;;;29.40;;
8654;SDS011;13500;52.514;13.462;2023-12-07T14:38:11;65.17;;;38.67;;
8654;SDS011;13500;52.514;13.462;2023-12-07T14:40:47;55.27;;;32.93;;
8654;SDS011;13500;52.514;13.462;2023-12-07T14:43:20;60.57;;;35.37;;
8654;SDS011;13500;52.514;13.462;2023-12-07T14:45:50;70.40;;;41.90;;
8654;SDS011;13500;52.514;13.462;2023-12-07T14:48:24;56.03;;;34.53;;